sensor_id;sensor_type;location;lat;lon;timestamp;pressure;altitude;pressure_sealevel;temperature;humidity
59545;BME280;45368;55.002;-1.592;2023-04-07T00:01:47;101057.19;;;5.32;54.28
59545;BME280;45368;55.002;-1.592;2023-04-07T00:04:25;101058.64;;;6.14;53.39
59545;BME280;45368;55.002;-1.592;2023-04-07T00:06:52;101058.99;;;6.16;52.74
59545;BME280;45368;55.002;-1.592;2023-04-07T00:09:19;101063.53;;;6.09;51.80
59545;BME280;45368;55.002;-1.592;2023-04-07T00:11:46;101067.44;;;5.77;53.28
59545;BME280;45368;55.002;-1.592;2023-04-07T00:14:13;101068.12;;;5.31;54.02
59545;BME280;45368;55.002;-1.592;2023-04-07T00:16:40;101066.40;;;6.07;52.68
59545;BME280;45368;55.002;-1.592;2023-04-07T00:19:07;101068.47;;;6.44;52.33
59545;BME280;45368;55.002;-1.592;2023-04-07T00:21:34;101070.84;;;5.88;53.15
59545;BME280;45368;55.002;-1.592;2023-04-07T00:24:01;101069.62;;;5.93;52.69
59545;BME280;45368;55.002;-1.592;2023-04-07T00:26:28;101070.71;;;5.76;52.44
59545;BME280;45368;55.002;-1.592;2023-04-07T00:28:55;101070.04;;;6.06;52.19
59545;BME280;45368;55.002;-1.592;2023-04-07T00:31:22;101072.19;;;6.62;50.75
59545;BME280;45368;55.002;-1.592;2023-04-07T00:33:50;101070.19;;;7.18;49.65
59545;BME280;45368;55.002;-1.592;2023-04-07T00:36:17;101071.70;;;7.49;48.64
59545;BME280;45368;55.002;-1.592;2023-04-07T00:38:44;101072.37;;;7.40;49.22
59545;BME280;45368;55.002;-1.592;2023-04-07T00:41:11;101075.99;;;7.30;48.85
59545;BME280;45368;55.002;-1.592;2023-04-07T00:43:37;101076.39;;;7.28;48.51
59545;BME280;45368;55.002;-1.592;2023-04-07T00:46:04;101075.29;;;7.64;48.28
59545;BME280;45368;55.002;-1.592;2023-04-07T00:48:31;101077.80;;;6.95;48.86
59545;BME280;45368;55.002;-1.592;2023-04-07T00:51:03;101073.51;;;7.49;48.29
59545;BME280;45368;55.002;-1.592;2023-04-07T00:53:30;101074.55;;;7.26;48.42
59545;BME280;45368;55.002;-1.592;2023-04-07T00:55:58;101080.08;;;6.96;48.74
59545;BME280;45368;55.002;-1.592;2023-04-07T00:58:25;101082.89;;;7.14;48.40
59545;BME280;45368;55.002;-1.592;2023-04-07T01:00:56;101083.68;;;6.59;49.96
59545;BME280;45368;55.002;-1.592;2023-04-07T01:03:32;101085.88;;;6.11;50.81
59545;BME280;45368;55.002;-1.592;2023-04-07T01:06:01;101088.86;;;6.46;50.28
59545;BME280;45368;55.002;-1.592;2023-04-07T01:08:36;101086.91;;;5.87;51.28
59545;BME280;45368;55.002;-1.592;2023-04-07T01:11:09;101089.50;;;6.48;50.24
59545;BME280;45368;55.002;-1.592;2023-04-07T01:13:43;101086.10;;;5.93;50.83
59545;BME280;45368;55.002;-1.592;2023-04-07T01:16:16;101092.30;;;6.50;50.01
59545;BME280;45368;55.002;-1.592;2023-04-07T01:18:47;101089.63;;;6.74;49.67
59545;BME280;45368;55.002;-1.592;2023-04-07T01:21:17;101089.73;;;6.57;49.87
59545;BME280;45368;55.002;-1.592;2023-04-07T01:23:57;101092.94;;;5.61;52.49
59545;BME280;45368;55.002;-1.592;2023-04-07T01:26:29;101096.27;;;5.84;52.64
59545;BME280;45368;55.002;-1.592;2023-04-07T01:29:18;101090.30;;;5.64;52.38
59545;BME280;45368;55.002;-1.592;2023-04-07T01:31:48;101086.30;;;5.88;50.81
59545;BME280;45368;55.002;-1.592;2023-04-07T01:34:16;101089.66;;;5.33;51.44
59545;BME280;45368;55.002;-1.592;2023-04-07T01:36:46;101088.25;;;5.56;51.43
59545;BME280;45368;55.002;-1.592;2023-04-07T01:39:15;101089.23;;;6.19;50.16
59545;BME280;45368;55.002;-1.592;2023-04-07T01:41:43;101086.03;;;5.99;50.48
59545;BME280;45368;55.002;-1.592;2023-04-07T01:44:11;101087.25;;;6.17;51.09
59545;BME280;45368;55.002;-1.592;2023-04-07T01:46:40;101088.44;;;5.64;51.48
59545;BME280;45368;55.002;-1.592;2023-04-07T01:49:07;101091.94;;;5.33;51.79
59545;BME280;45368;55.002;-1.592;2023-04-07T01:51:34;101090.12;;;5.21;52.30
59545;BME280;45368;55.002;-1.592;2023-04-07T01:54:03;101092.31;;;5.98;50.84
59545;BME280;45368;55.002;-1.592;2023-04-07T01:56:31;101093.75;;;6.31;50.31
59545;BME280;45368;55.002;-1.592;2023-04-07T01:58:59;101098.57;;;5.91;51.35
59545;BME280;45368;55.002;-1.592;2023-04-07T02:01:28;101094.20;;;5.49;52.28
59545;BME280;45368;55.002;-1.592;2023-04-07T02:04:04;101094.38;;;5.93;51.42
59545;BME280;45368;55.002;-1.592;2023-04-07T02:06:34;101096.98;;;6.34;50.02
59545;BME280;45368;55.002;-1.592;2023-04-07T02:09:06;101101.91;;;6.04;50.45
59545;BME280;45368;55.002;-1.592;2023-04-07T02:11:37;101106.40;;;5.90;50.89
59545;BME280;45368;55.002;-1.592;2023-04-07T02:14:08;101103.51;;;6.11;50.40
59545;BME280;45368;55.002;-1.592;2023-04-07T02:16:36;101103.11;;;5.99;51.06
59545;BME280;45368;55.002;-1.592;2023-04-07T02:19:05;101107.87;;;6.27;50.24
59545;BME280;45368;55.002;-1.592;2023-04-07T02:21:33;101112.97;;;5.54;51.16
59545;BME280;45368;55.002;-1.592;2023-04-07T02:24:01;101113.11;;;6.19;50.60
59545;BME280;45368;55.002;-1.592;2023-04-07T02:26:32;101113.71;;;6.04;50.59
59545;BME280;45368;55.002;-1.592;2023-04-07T02:29:01;101120.63;;;4.87;52.99
59545;BME280;45368;55.002;-1.592;2023-04-07T02:31:28;101123.69;;;4.63;54.57
59545;BME280;45368;55.002;-1.592;2023-04-07T02:33:55;101127.52;;;4.48;55.32
59545;BME280;45368;55.002;-1.592;2023-04-07T02:36:22;101128.45;;;4.31;55.61
59545;BME280;45368;55.002;-1.592;2023-04-07T02:38:49;101129.07;;;4.21;54.83
59545;BME280;45368;55.002;-1.592;2023-04-07T02:41:15;101126.74;;;4.20;54.68
59545;BME280;45368;55.002;-1.592;2023-04-07T02:43:42;101127.65;;;4.89;53.62
59545;BME280;45368;55.002;-1.592;2023-04-07T02:46:09;101131.74;;;4.77;53.83
59545;BME280;45368;55.002;-1.592;2023-04-07T02:48:36;101138.63;;;4.25;54.81
59545;BME280;45368;55.002;-1.592;2023-04-07T02:51:04;101135.74;;;4.73;53.21
59545;BME280;45368;55.002;-1.592;2023-04-07T02:53:31;101138.72;;;4.53;53.92
59545;BME280;45368;55.002;-1.592;2023-04-07T02:56:00;101136.62;;;4.79;53.01
59545;BME280;45368;55.002;-1.592;2023-04-07T02:58:26;101140.18;;;4.35;55.25
59545;BME280;45368;55.002;-1.592;2023-04-07T03:00:53;101139.24;;;4.36;55.41
59545;BME280;45368;55.002;-1.592;2023-04-07T03:03:20;101138.61;;;4.26;54.53
59545;BME280;45368;55.002;-1.592;2023-04-07T03:05:47;101138.45;;;4.30;54.64
59545;BME280;45368;55.002;-1.592;2023-04-07T03:08:14;101141.68;;;4.22;55.42
59545;BME280;45368;55.002;-1.592;2023-04-07T03:10:41;101141.67;;;4.12;55.94
59545;BME280;45368;55.002;-1.592;2023-04-07T03:13:08;101140.07;;;3.99;55.37
59545;BME280;45368;55.002;-1.592;2023-04-07T03:15:35;101143.49;;;4.64;55.32
59545;BME280;45368;55.002;-1.592;2023-04-07T03:18:02;101145.51;;;4.44;54.30
59545;BME280;45368;55.002;-1.592;2023-04-07T03:20:29;101146.68;;;4.39;55.05
59545;BME280;45368;55.002;-1.592;2023-04-07T03:22:56;101149.20;;;4.27;55.02
59545;BME280;45368;55.002;-1.592;2023-04-07T03:25:24;101151.62;;;3.92;56.15
59545;BME280;45368;55.002;-1.592;2023-04-07T03:27:52;101147.47;;;4.61;54.75
59545;BME280;45368;55.002;-1.592;2023-04-07T03:30:19;101144.76;;;4.05;55.85
59545;BME280;45368;55.002;-1.592;2023-04-07T03:32:46;101144.53;;;4.00;56.20
59545;BME280;45368;55.002;-1.592;2023-04-07T03:35:13;101148.72;;;4.29;55.58
59545;BME280;45368;55.002;-1.592;2023-04-07T03:37:40;101150.16;;;4.25;55.67
59545;BME280;45368;55.002;-1.592;2023-04-07T03:40:07;101155.22;;;4.59;54.07
59545;BME280;45368;55.002;-1.592;2023-04-07T03:42:34;101154.48;;;4.79;53.82
59545;BME280;45368;55.002;-1.592;2023-04-07T03:45:01;101158.51;;;4.22;55.91
59545;BME280;45368;55.002;-1.592;2023-04-07T03:47:28;101152.63;;;4.45;55.25
59545;BME280;45368;55.002;-1.592;2023-04-07T03:49:55;101151.31;;;4.21;54.45
59545;BME280;45368;55.002;-1.592;2023-04-07T03:52:22;101154.62;;;4.35;55.37
59545;BME280;45368;55.002;-1.592;2023-04-07T03:54:49;101160.44;;;3.83;56.27
59545;BME280;45368;55.002;-1.592;2023-04-07T03:57:16;101161.16;;;3.80;57.07
59545;BME280;45368;55.002;-1.592;2023-04-07T03:59:43;101157.09;;;4.14;55.23
59545;BME280;45368;55.002;-1.592;2023-04-07T04:02:10;101158.85;;;3.72;56.34
59545;BME280;45368;55.002;-1.592;2023-04-07T04:04:37;101172.71;;;3.14;57.98
59545;BME280;45368;55.002;-1.592;2023-04-07T04:07:04;101166.96;;;3.28;57.89
59545;BME280;45368;55.002;-1.592;2023-04-07T04:09:31;101160.69;;;3.88;57.20
59545;BME280;45368;55.002;-1.592;2023-04-07T04:11:59;101162.97;;;3.71;57.12
59545;BME280;45368;55.002;-1.592;2023-04-07T04:14:26;101158.59;;;4.51;55.32
59545;BME280;45368;55.002;-1.592;2023-04-07T04:16:53;101161.08;;;4.21;55.93
59545;BME280;45368;55.002;-1.592;2023-04-07T04:19:21;101157.52;;;5.12;53.45
59545;BME280;45368;55.002;-1.592;2023-04-07T04:21:48;101164.77;;;4.97;53.05
59545;BME280;45368;55.002;-1.592;2023-04-07T04:24:15;101163.17;;;5.37;52.40
59545;BME280;45368;55.002;-1.592;2023-04-07T04:26:41;101163.91;;;5.06;52.71
59545;BME280;45368;55.002;-1.592;2023-04-07T04:29:08;101162.36;;;5.46;51.72
59545;BME280;45368;55.002;-1.592;2023-04-07T04:31:35;101167.75;;;4.42;53.35
59545;BME280;45368;55.002;-1.592;2023-04-07T04:34:02;101166.51;;;4.79;52.95
59545;BME280;45368;55.002;-1.592;2023-04-07T04:36:29;101172.89;;;4.47;53.76
59545;BME280;45368;55.002;-1.592;2023-04-07T04:38:56;101174.49;;;4.17;54.81
59545;BME280;45368;55.002;-1.592;2023-04-07T04:41:23;101177.50;;;3.91;55.05
59545;BME280;45368;55.002;-1.592;2023-04-07T04:43:50;101178.83;;;5.20;52.52
59545;BME280;45368;55.002;-1.592;2023-04-07T04:46:22;101186.02;;;4.84;53.19
59545;BME280;45368;55.002;-1.592;2023-04-07T04:48:49;101190.82;;;4.88;54.11
59545;BME280;45368;55.002;-1.592;2023-04-07T04:51:28;101189.16;;;4.53;53.54
59545;BME280;45368;55.002;-1.592;2023-04-07T04:53:55;101187.28;;;4.81;52.99
59545;BME280;45368;55.002;-1.592;2023-04-07T04:58:44;101187.23;;;5.84;52.60
59545;BME280;45368;55.002;-1.592;2023-04-07T05:01:11;101187.71;;;4.85;52.71
59545;BME280;45368;55.002;-1.592;2023-04-07T05:03:55;101195.93;;;4.81;53.86
59545;BME280;45368;55.002;-1.592;2023-04-07T05:06:24;101203.59;;;4.54;53.34
59545;BME280;45368;55.002;-1.592;2023-04-07T05:08:53;101203.68;;;4.61;53.48
59545;BME280;45368;55.002;-1.592;2023-04-07T05:11:21;101206.40;;;3.99;54.63
59545;BME280;45368;55.002;-1.592;2023-04-07T05:13:49;101212.05;;;4.70;54.19
59545;BME280;45368;55.002;-1.592;2023-04-07T05:16:16;101220.59;;;4.90;54.05
59545;BME280;45368;55.002;-1.592;2023-04-07T05:18:43;101220.17;;;4.72;54.32
59545;BME280;45368;55.002;-1.592;2023-04-07T05:21:10;101223.39;;;4.99;53.92
59545;BME280;45368;55.002;-1.592;2023-04-07T05:23:38;101228.59;;;5.32;53.52
59545;BME280;45368;55.002;-1.592;2023-04-07T05:26:06;101230.15;;;4.28;54.54
59545;BME280;45368;55.002;-1.592;2023-04-07T05:28:33;101230.65;;;4.18;55.77
59545;BME280;45368;55.002;-1.592;2023-04-07T05:31:00;101237.11;;;4.06;55.32
59545;BME280;45368;55.002;-1.592;2023-04-07T05:33:27;101233.98;;;4.53;54.07
59545;BME280;45368;55.002;-1.592;2023-04-07T05:35:54;101242.25;;;4.90;53.85
59545;BME280;45368;55.002;-1.592;2023-04-07T05:38:21;101236.46;;;5.60;51.83
59545;BME280;45368;55.002;-1.592;2023-04-07T05:40:48;101241.95;;;5.58;51.71
59545;BME280;45368;55.002;-1.592;2023-04-07T05:43:15;101253.42;;;4.68;53.31
59545;BME280;45368;55.002;-1.592;2023-04-07T05:45:42;101248.24;;;5.18;52.91
59545;BME280;45368;55.002;-1.592;2023-04-07T05:48:09;101250.96;;;4.99;52.35
59545;BME280;45368;55.002;-1.592;2023-04-07T05:50:36;101248.16;;;6.38;50.48
59545;BME280;45368;55.002;-1.592;2023-04-07T05:53:03;101253.75;;;5.82;51.20
59545;BME280;45368;55.002;-1.592;2023-04-07T05:55:31;101257.43;;;5.23;51.96
59545;BME280;45368;55.002;-1.592;2023-04-07T05:57:58;101257.37;;;5.36;52.06
59545;BME280;45368;55.002;-1.592;2023-04-07T06:00:25;101261.54;;;5.26;51.82
59545;BME280;45368;55.002;-1.592;2023-04-07T06:02:52;101267.50;;;5.06;52.85
59545;BME280;45368;55.002;-1.592;2023-04-07T06:05:20;101267.45;;;5.33;52.79
59545;BME280;45368;55.002;-1.592;2023-04-07T06:07:47;101265.00;;;5.41;52.79
59545;BME280;45368;55.002;-1.592;2023-04-07T06:10:14;101268.10;;;5.10;54.03
59545;BME280;45368;55.002;-1.592;2023-04-07T06:12:41;101272.45;;;4.85;53.59
59545;BME280;45368;55.002;-1.592;2023-04-07T06:15:08;101276.13;;;4.96;53.72
59545;BME280;45368;55.002;-1.592;2023-04-07T06:17:36;101278.65;;;5.00;54.55
59545;BME280;45368;55.002;-1.592;2023-04-07T06:20:03;101286.42;;;5.01;54.94
59545;BME280;45368;55.002;-1.592;2023-04-07T06:22:30;101291.20;;;4.05;55.75
59545;BME280;45368;55.002;-1.592;2023-04-07T06:24:58;101294.71;;;4.09;56.04
59545;BME280;45368;55.002;-1.592;2023-04-07T06:27:24;101291.14;;;4.82;55.51
59545;BME280;45368;55.002;-1.592;2023-04-07T06:29:51;101293.55;;;4.50;54.96
59545;BME280;45368;55.002;-1.592;2023-04-07T06:32:18;101293.48;;;4.52;55.39
59545;BME280;45368;55.002;-1.592;2023-04-07T06:34:45;101297.25;;;4.65;55.12
59545;BME280;45368;55.002;-1.592;2023-04-07T06:37:12;101302.81;;;4.82;54.39
59545;BME280;45368;55.002;-1.592;2023-04-07T06:39:39;101308.19;;;4.84;54.58
59545;BME280;45368;55.002;-1.592;2023-04-07T06:42:06;101314.40;;;3.88;56.50
59545;BME280;45368;55.002;-1.592;2023-04-07T06:44:33;101321.06;;;3.89;56.89
59545;BME280;45368;55.002;-1.592;2023-04-07T06:47:00;101322.65;;;4.17;56.91
59545;BME280;45368;55.002;-1.592;2023-04-07T06:49:27;101326.62;;;4.56;55.60
59545;BME280;45368;55.002;-1.592;2023-04-07T06:51:55;101328.13;;;4.35;55.81
59545;BME280;45368;55.002;-1.592;2023-04-07T06:54:22;101330.33;;;4.26;56.83
59545;BME280;45368;55.002;-1.592;2023-04-07T06:56:49;101334.40;;;4.58;55.89
59545;BME280;45368;55.002;-1.592;2023-04-07T06:59:15;101338.10;;;4.74;55.74
59545;BME280;45368;55.002;-1.592;2023-04-07T07:01:42;101343.59;;;4.63;56.27
59545;BME280;45368;55.002;-1.592;2023-04-07T07:04:09;101340.12;;;4.88;55.40
59545;BME280;45368;55.002;-1.592;2023-04-07T07:06:36;101344.72;;;4.96;55.26
59545;BME280;45368;55.002;-1.592;2023-04-07T07:09:03;101352.60;;;3.53;58.71
59545;BME280;45368;55.002;-1.592;2023-04-07T07:11:30;101345.75;;;4.14;57.46
59545;BME280;45368;55.002;-1.592;2023-04-07T07:13:57;101352.24;;;3.83;58.83
59545;BME280;45368;55.002;-1.592;2023-04-07T07:16:24;101350.59;;;4.38;57.08
59545;BME280;45368;55.002;-1.592;2023-04-07T07:18:51;101354.76;;;4.32;57.48
59545;BME280;45368;55.002;-1.592;2023-04-07T07:21:19;101358.17;;;4.47;58.14
59545;BME280;45368;55.002;-1.592;2023-04-07T07:23:46;101356.82;;;4.54;57.62
59545;BME280;45368;55.002;-1.592;2023-04-07T07:26:13;101358.67;;;4.61;56.72
59545;BME280;45368;55.002;-1.592;2023-04-07T07:28:40;101359.00;;;4.83;56.63
59545;BME280;45368;55.002;-1.592;2023-04-07T07:31:09;101362.01;;;4.67;57.01
59545;BME280;45368;55.002;-1.592;2023-04-07T07:33:36;101356.74;;;4.90;56.41
59545;BME280;45368;55.002;-1.592;2023-04-07T07:36:04;101355.77;;;5.03;55.27
59545;BME280;45368;55.002;-1.592;2023-04-07T07:38:32;101355.41;;;6.14;54.02
59545;BME280;45368;55.002;-1.592;2023-04-07T07:40:59;101357.91;;;5.98;54.18
59545;BME280;45368;55.002;-1.592;2023-04-07T07:43:26;101357.70;;;6.40;53.73
59545;BME280;45368;55.002;-1.592;2023-04-07T07:45:53;101359.21;;;5.91;54.35
59545;BME280;45368;55.002;-1.592;2023-04-07T07:48:20;101356.51;;;5.58;55.28
59545;BME280;45368;55.002;-1.592;2023-04-07T07:50:47;101359.67;;;6.19;54.36
59545;BME280;45368;55.002;-1.592;2023-04-07T07:53:14;101361.82;;;6.00;54.98
59545;BME280;45368;55.002;-1.592;2023-04-07T07:55:42;101363.16;;;5.55;55.91
59545;BME280;45368;55.002;-1.592;2023-04-07T07:58:09;101363.46;;;5.44;55.95
59545;BME280;45368;55.002;-1.592;2023-04-07T08:00:36;101362.97;;;6.04;54.95
59545;BME280;45368;55.002;-1.592;2023-04-07T08:03:03;101360.22;;;6.56;53.83
59545;BME280;45368;55.002;-1.592;2023-04-07T08:05:30;101364.23;;;6.57;54.28
59545;BME280;45368;55.002;-1.592;2023-04-07T08:07:57;101365.89;;;6.66;53.44
59545;BME280;45368;55.002;-1.592;2023-04-07T08:10:24;101366.74;;;6.44;53.43
59545;BME280;45368;55.002;-1.592;2023-04-07T08:12:51;101374.26;;;6.22;54.93
59545;BME280;45368;55.002;-1.592;2023-04-07T08:15:18;101374.21;;;6.35;54.62
59545;BME280;45368;55.002;-1.592;2023-04-07T08:17:46;101377.41;;;6.42;54.69
59545;BME280;45368;55.002;-1.592;2023-04-07T08:20:13;101375.67;;;6.54;54.75
59545;BME280;45368;55.002;-1.592;2023-04-07T08:22:40;101381.40;;;5.92;55.62
59545;BME280;45368;55.002;-1.592;2023-04-07T08:25:07;101378.91;;;6.18;56.02
59545;BME280;45368;55.002;-1.592;2023-04-07T08:27:34;101384.28;;;6.13;56.18
59545;BME280;45368;55.002;-1.592;2023-04-07T08:30:04;101382.74;;;6.18;56.30
59545;BME280;45368;55.002;-1.592;2023-04-07T08:32:35;101382.55;;;6.62;55.76
59545;BME280;45368;55.002;-1.592;2023-04-07T08:35:04;101383.02;;;6.34;56.13
59545;BME280;45368;55.002;-1.592;2023-04-07T08:37:32;101383.49;;;6.43;56.98
59545;BME280;45368;55.002;-1.592;2023-04-07T08:40:00;101383.60;;;6.90;55.38
59545;BME280;45368;55.002;-1.592;2023-04-07T08:42:29;101380.69;;;6.62;55.93
59545;BME280;45368;55.002;-1.592;2023-04-07T08:45:01;101377.55;;;6.85;55.57
59545;BME280;45368;55.002;-1.592;2023-04-07T08:47:31;101375.83;;;7.44;53.85
59545;BME280;45368;55.002;-1.592;2023-04-07T08:50:00;101373.72;;;6.78;54.70
59545;BME280;45368;55.002;-1.592;2023-04-07T08:52:33;101380.33;;;6.60;56.17
59545;BME280;45368;55.002;-1.592;2023-04-07T08:55:03;101378.11;;;7.15;54.67
59545;BME280;45368;55.002;-1.592;2023-04-07T08:57:31;101376.68;;;7.89;52.72
59545;BME280;45368;55.002;-1.592;2023-04-07T09:00:00;101379.21;;;7.83;52.93
59545;BME280;45368;55.002;-1.592;2023-04-07T09:02:28;101385.53;;;6.63;55.02
59545;BME280;45368;55.002;-1.592;2023-04-07T09:04:55;101384.63;;;7.13;54.56
59545;BME280;45368;55.002;-1.592;2023-04-07T09:07:22;101383.48;;;6.62;55.54
59545;BME280;45368;55.002;-1.592;2023-04-07T09:09:49;101378.77;;;7.18;55.21
59545;BME280;45368;55.002;-1.592;2023-04-07T09:12:16;101377.83;;;7.07;54.49
59545;BME280;45368;55.002;-1.592;2023-04-07T09:14:43;101379.31;;;7.43;53.13
59545;BME280;45368;55.002;-1.592;2023-04-07T09:17:09;101381.54;;;7.53;53.14
59545;BME280;45368;55.002;-1.592;2023-04-07T09:19:37;101383.93;;;6.62;54.36
59545;BME280;45368;55.002;-1.592;2023-04-07T09:22:04;101374.48;;;7.20;54.33
59545;BME280;45368;55.002;-1.592;2023-04-07T09:24:31;101376.70;;;7.03;54.17
59545;BME280;45368;55.002;-1.592;2023-04-07T09:27:17;101377.53;;;6.98;55.21
59545;BME280;45368;55.002;-1.592;2023-04-07T09:29:45;101381.15;;;7.26;54.38
59545;BME280;45368;55.002;-1.592;2023-04-07T09:32:33;101381.91;;;7.15;54.78
59545;BME280;45368;55.002;-1.592;2023-04-07T09:35:00;101380.58;;;7.05;54.31
59545;BME280;45368;55.002;-1.592;2023-04-07T09:37:27;101382.21;;;7.70;53.21
59545;BME280;45368;55.002;-1.592;2023-04-07T09:39:54;101378.66;;;8.59;51.70
59545;BME280;45368;55.002;-1.592;2023-04-07T09:42:21;101374.14;;;7.15;53.54
59545;BME280;45368;55.002;-1.592;2023-04-07T09:44:48;101376.91;;;7.49;53.65
59545;BME280;45368;55.002;-1.592;2023-04-07T09:47:17;101380.64;;;7.91;51.88
59545;BME280;45368;55.002;-1.592;2023-04-07T09:49:49;101380.87;;;8.23;52.32
59545;BME280;45368;55.002;-1.592;2023-04-07T09:52:16;101374.57;;;9.49;48.68
59545;BME280;45368;55.002;-1.592;2023-04-07T09:54:43;101370.26;;;10.18;48.44
59545;BME280;45368;55.002;-1.592;2023-04-07T09:57:11;101375.90;;;9.07;49.69
59545;BME280;45368;55.002;-1.592;2023-04-07T09:59:40;101380.72;;;7.56;52.42
59545;BME280;45368;55.002;-1.592;2023-04-07T10:02:11;101374.72;;;7.54;52.62
59545;BME280;45368;55.002;-1.592;2023-04-07T10:05:46;101373.41;;;8.33;51.77
59545;BME280;45368;55.002;-1.592;2023-04-07T10:08:14;101385.03;;;7.98;52.88
59545;BME280;45368;55.002;-1.592;2023-04-07T10:10:42;101385.67;;;6.84;54.67
59545;BME280;45368;55.002;-1.592;2023-04-07T10:13:09;101385.86;;;7.78;53.14
59545;BME280;45368;55.002;-1.592;2023-04-07T10:15:37;101387.59;;;8.12;51.59
59545;BME280;45368;55.002;-1.592;2023-04-07T10:18:06;101386.49;;;7.91;52.38
59545;BME280;45368;55.002;-1.592;2023-04-07T10:20:35;101386.40;;;8.38;51.97
59545;BME280;45368;55.002;-1.592;2023-04-07T10:23:14;101384.58;;;7.21;52.37
59545;BME280;45368;55.002;-1.592;2023-04-07T10:25:43;101385.76;;;8.12;51.83
59545;BME280;45368;55.002;-1.592;2023-04-07T10:28:12;101387.59;;;9.40;49.28
59545;BME280;45368;55.002;-1.592;2023-04-07T10:30:41;101387.61;;;8.72;49.82
59545;BME280;45368;55.002;-1.592;2023-04-07T10:33:08;101390.06;;;7.67;51.80
59545;BME280;45368;55.002;-1.592;2023-04-07T10:36:07;101389.23;;;8.84;49.96
59545;BME280;45368;55.002;-1.592;2023-04-07T10:38:34;101394.44;;;8.08;51.21
59545;BME280;45368;55.002;-1.592;2023-04-07T10:41:30;101392.90;;;8.34;51.29
59545;BME280;45368;55.002;-1.592;2023-04-07T10:43:59;101395.00;;;8.57;50.46
59545;BME280;45368;55.002;-1.592;2023-04-07T10:47:01;101395.01;;;7.77;51.43
59545;BME280;45368;55.002;-1.592;2023-04-07T10:49:29;101389.91;;;8.43;51.11
59545;BME280;45368;55.002;-1.592;2023-04-07T10:52:28;101389.49;;;8.44;50.90
59545;BME280;45368;55.002;-1.592;2023-04-07T10:55:33;101392.00;;;8.21;52.69
59545;BME280;45368;55.002;-1.592;2023-04-07T10:58:14;101387.67;;;8.63;50.28
59545;BME280;45368;55.002;-1.592;2023-04-07T11:01:00;101378.97;;;10.22;47.13
59545;BME280;45368;55.002;-1.592;2023-04-07T11:03:52;101385.44;;;8.90;48.40
59545;BME280;45368;55.002;-1.592;2023-04-07T11:06:20;101375.15;;;10.14;46.28
59545;BME280;45368;55.002;-1.592;2023-04-07T11:08:48;101385.79;;;8.82;49.70
59545;BME280;45368;55.002;-1.592;2023-04-07T11:11:18;101392.59;;;7.90;51.07
59545;BME280;45368;55.002;-1.592;2023-04-07T11:13:47;101385.90;;;9.24;49.58
59545;BME280;45368;55.002;-1.592;2023-04-07T11:16:16;101390.36;;;8.97;49.79
59545;BME280;45368;55.002;-1.592;2023-04-07T11:18:44;101386.39;;;9.82;48.46
59545;BME280;45368;55.002;-1.592;2023-04-07T11:21:17;101395.79;;;8.96;50.34
59545;BME280;45368;55.002;-1.592;2023-04-07T11:23:46;101399.03;;;8.87;50.17
59545;BME280;45368;55.002;-1.592;2023-04-07T11:26:14;101405.81;;;8.18;51.44
59545;BME280;45368;55.002;-1.592;2023-04-07T11:28:44;101406.32;;;8.31;51.73
59545;BME280;45368;55.002;-1.592;2023-04-07T11:31:20;101410.32;;;8.56;51.62
59545;BME280;45368;55.002;-1.592;2023-04-07T11:33:52;101406.56;;;8.90;50.24
59545;BME280;45368;55.002;-1.592;2023-04-07T11:36:26;101408.52;;;9.00;50.29
59545;BME280;45368;55.002;-1.592;2023-04-07T11:38:54;101409.06;;;9.41;49.39
59545;BME280;45368;55.002;-1.592;2023-04-07T11:41:21;101403.58;;;9.82;48.00
59545;BME280;45368;55.002;-1.592;2023-04-07T11:44:03;101409.86;;;9.50;49.42
59545;BME280;45368;55.002;-1.592;2023-04-07T11:46:30;101412.24;;;7.42;53.30
59545;BME280;45368;55.002;-1.592;2023-04-07T11:49:08;101410.67;;;8.55;51.98
59545;BME280;45368;55.002;-1.592;2023-04-07T11:51:35;101411.91;;;7.95;53.09
59545;BME280;45368;55.002;-1.592;2023-04-07T11:54:02;101412.71;;;8.32;52.85
59545;BME280;45368;55.002;-1.592;2023-04-07T11:56:29;101411.64;;;7.81;53.66
59545;BME280;45368;55.002;-1.592;2023-04-07T11:59:07;101412.33;;;7.67;53.80
59545;BME280;45368;55.002;-1.592;2023-04-07T12:01:40;101414.09;;;8.48;52.20
59545;BME280;45368;55.002;-1.592;2023-04-07T12:04:12;101415.01;;;8.26;52.70
59545;BME280;45368;55.002;-1.592;2023-04-07T12:06:39;101415.02;;;8.20;51.94
59545;BME280;45368;55.002;-1.592;2023-04-07T12:09:07;101419.85;;;7.69;53.62
59545;BME280;45368;55.002;-1.592;2023-04-07T12:11:35;101415.35;;;9.62;49.76
59545;BME280;45368;55.002;-1.592;2023-04-07T12:14:02;101420.35;;;8.19;51.14
59545;BME280;45368;55.002;-1.592;2023-04-07T12:16:29;101414.82;;;8.66;51.19
59545;BME280;45368;55.002;-1.592;2023-04-07T12:18:57;101415.04;;;9.30;49.78
59545;BME280;45368;55.002;-1.592;2023-04-07T12:21:24;101419.64;;;9.21;49.18
59545;BME280;45368;55.002;-1.592;2023-04-07T12:23:51;101431.16;;;8.36;50.86
59545;BME280;45368;55.002;-1.592;2023-04-07T12:26:18;101430.96;;;8.36;50.74
59545;BME280;45368;55.002;-1.592;2023-04-07T12:28:45;101428.01;;;8.63;51.80
59545;BME280;45368;55.002;-1.592;2023-04-07T12:31:12;101431.67;;;8.26;51.89
59545;BME280;45368;55.002;-1.592;2023-04-07T12:33:38;101432.15;;;8.02;52.83
59545;BME280;45368;55.002;-1.592;2023-04-07T12:36:06;101428.70;;;6.89;54.43
59545;BME280;45368;55.002;-1.592;2023-04-07T12:38:33;101424.93;;;8.72;51.09
59545;BME280;45368;55.002;-1.592;2023-04-07T12:41:00;101427.10;;;9.12;50.00
59545;BME280;45368;55.002;-1.592;2023-04-07T12:43:27;101427.10;;;8.98;49.98
59545;BME280;45368;55.002;-1.592;2023-04-07T12:45:54;101429.94;;;9.26;49.40
59545;BME280;45368;55.002;-1.592;2023-04-07T12:48:21;101431.51;;;8.44;50.34
59545;BME280;45368;55.002;-1.592;2023-04-07T12:50:47;101434.04;;;8.53;51.94
59545;BME280;45368;55.002;-1.592;2023-04-07T12:53:15;101436.46;;;7.76;53.53
59545;BME280;45368;55.002;-1.592;2023-04-07T12:55:42;101437.47;;;7.44;55.29
59545;BME280;45368;55.002;-1.592;2023-04-07T12:58:09;101435.25;;;7.75;53.81
59545;BME280;45368;55.002;-1.592;2023-04-07T13:00:36;101439.84;;;7.34;54.71
59545;BME280;45368;55.002;-1.592;2023-04-07T13:03:03;101437.44;;;8.69;52.44